createdAt,value
2018-09-27T00:02:23.135Z,78.80
2018-09-27T00:04:49.675Z,79.90
2018-09-27T00:07:16.278Z,78.10
2018-09-27T00:09:42.734Z,78.30
2018-09-27T00:12:10.013Z,77.90
2018-09-27T00:14:36.467Z,78.80
2018-09-27T00:17:06.989Z,77.70
2018-09-27T00:19:33.481Z,79.10
2018-09-27T00:22:00.082Z,79.70
2018-09-27T00:24:26.570Z,77.50
2018-09-27T00:26:53.029Z,76.60
2018-09-27T00:29:19.574Z,77.70
2018-09-27T00:34:19.228Z,79.40
2018-09-27T00:36:47.832Z,79.90
2018-09-27T00:39:14.972Z,79.70
2018-09-27T00:41:43.221Z,79.40
2018-09-27T00:44:11.359Z,78.80
2018-09-27T00:46:38.415Z,78.20
2018-09-27T00:49:05.617Z,78.10
2018-09-27T00:51:33.105Z,77.30
2018-09-27T00:56:32.406Z,79.10
2018-09-27T00:58:59.906Z,78.40
2018-09-27T01:01:26.612Z,78.30
2018-09-27T01:03:54.149Z,79.20
2018-09-27T01:06:21.145Z,79.10
2018-09-27T01:08:48.266Z,79.90
2018-09-27T01:13:48.704Z,79.00
2018-09-27T01:16:16.013Z,79.60
2018-09-27T01:18:43.772Z,79.10
2018-09-27T01:21:12.132Z,78.80
2018-09-27T01:23:41.121Z,79.60
2018-09-27T01:26:08.236Z,80.30
2018-09-27T01:28:35.232Z,79.30
2018-09-27T01:31:03.264Z,80.30
2018-09-27T01:33:30.533Z,79.80
2018-09-27T01:35:57.473Z,80.10
2018-09-27T01:38:25.841Z,80.70
2018-09-27T01:40:54.333Z,80.70
2018-09-27T01:43:21.724Z,80.10
2018-09-27T01:45:48.850Z,78.10
2018-09-27T01:48:15.762Z,81.00
2018-09-27T01:50:43.392Z,80.50
2018-09-27T01:53:10.736Z,78.40
2018-09-27T01:55:38.211Z,77.30
2018-09-27T01:58:06.229Z,78.20
2018-09-27T02:03:05.952Z,78.80
2018-09-27T02:05:34.731Z,80.70
2018-09-27T02:08:01.685Z,83.10
2018-09-27T02:10:29.473Z,82.60
2018-09-27T02:12:57.096Z,80.60
2018-09-27T02:15:24.397Z,81.10
2018-09-27T02:17:50.922Z,81.60
2018-09-27T02:22:49.504Z,80.70
2018-09-27T02:25:16.706Z,81.30
2018-09-27T02:27:44.235Z,81.80
2018-09-27T02:30:11.353Z,80.60
2018-09-27T02:32:39.688Z,79.40
2018-09-27T02:35:06.171Z,78.70
2018-09-27T02:40:06.220Z,81.60
2018-09-27T02:42:32.731Z,80.60
2018-09-27T02:45:00.331Z,83.80
2018-09-27T02:47:27.830Z,83.80
2018-09-27T02:49:54.692Z,82.90
2018-09-27T02:52:22.040Z,81.40
2018-09-27T02:54:49.740Z,80.80
2018-09-27T02:57:17.085Z,79.10
2018-09-27T02:59:44.098Z,80.60
2018-09-27T03:02:12.194Z,79.80
2018-09-27T03:04:39.039Z,79.70
2018-09-27T03:07:07.735Z,79.10
2018-09-27T03:09:34.696Z,79.00
2018-09-27T03:12:02.360Z,79.20
2018-09-27T03:14:28.970Z,79.70
2018-09-27T03:16:57.696Z,80.50
2018-09-27T03:19:25.660Z,80.80
2018-09-27T03:21:52.096Z,79.50
2018-09-27T03:24:18.596Z,78.40
2018-09-27T03:26:45.048Z,78.90
2018-09-27T03:29:11.585Z,78.20
2018-09-27T03:31:38.143Z,77.70
2018-09-27T03:36:36.175Z,78.80
2018-09-27T03:39:02.673Z,81.50
2018-09-27T03:41:29.133Z,81.10
2018-09-27T03:43:55.640Z,80.10
2018-09-27T03:46:22.371Z,78.10
2018-09-27T03:48:48.918Z,77.90
2018-09-27T03:51:15.447Z,78.00
2018-09-27T03:53:42.125Z,80.60
2018-09-27T03:56:08.632Z,83.40
2018-09-27T03:58:35.100Z,81.80
2018-09-27T04:01:01.590Z,79.80
2018-09-27T04:03:28.130Z,79.30
2018-09-27T04:05:55.270Z,80.10
2018-09-27T04:08:21.863Z,79.40
2018-09-27T04:10:48.364Z,78.80
2018-09-27T04:13:14.835Z,79.30
2018-09-27T04:15:45.781Z,78.90
2018-09-27T04:18:12.475Z,78.00
2018-09-27T04:20:38.948Z,76.70
2018-09-27T04:23:05.725Z,77.90
2018-09-27T04:25:32.358Z,77.40
2018-09-27T04:27:58.858Z,76.90
2018-09-27T04:30:28.892Z,79.00
2018-09-27T04:32:55.355Z,78.30
2018-09-27T04:35:21.882Z,78.30
2018-09-27T04:37:48.437Z,76.60
2018-09-27T04:40:14.917Z,78.60
2018-09-27T04:42:41.419Z,78.80
2018-09-27T04:47:39.869Z,80.30
2018-09-27T04:50:06.354Z,80.40
2018-09-27T04:52:32.793Z,79.20
2018-09-27T04:55:01.182Z,78.40
2018-09-27T04:57:28.082Z,79.90
2018-09-27T04:59:54.588Z,79.60
2018-09-27T05:02:21.293Z,81.10
2018-09-27T05:04:47.793Z,79.10
2018-09-27T05:07:14.295Z,78.80
2018-09-27T05:12:13.058Z,77.50
2018-09-27T05:14:39.589Z,77.60
2018-09-27T05:17:06.083Z,79.30
2018-09-27T05:19:33.059Z,78.30
2018-09-27T05:21:59.592Z,77.50
2018-09-27T05:24:26.127Z,76.90
2018-09-27T05:29:24.523Z,78.10
2018-09-27T05:31:51.170Z,77.60
2018-09-27T05:34:17.634Z,80.10
2018-09-27T05:36:44.625Z,80.80
2018-09-27T05:39:12.094Z,80.80
2018-09-27T05:41:38.594Z,81.70
2018-09-27T05:44:05.617Z,82.30
2018-09-27T05:46:32.542Z,83.10
2018-09-27T05:48:59.047Z,81.90
2018-09-27T05:51:25.566Z,81.30
2018-09-27T05:53:52.394Z,80.70
2018-09-27T05:56:18.955Z,80.70
2018-09-27T05:58:45.460Z,81.40
2018-09-27T06:01:11.923Z,82.80
2018-09-27T06:03:38.488Z,81.60
2018-09-27T06:06:05.677Z,80.30
2018-09-27T06:08:32.409Z,81.10
2018-09-27T06:10:59.005Z,79.20
2018-09-27T06:13:25.530Z,77.30
2018-09-27T06:15:52.009Z,78.40
2018-09-27T06:18:18.600Z,79.10
2018-09-27T06:20:45.115Z,79.90
2018-09-27T06:23:11.597Z,79.70
2018-09-27T06:25:38.754Z,78.70
2018-09-27T06:30:37.914Z,79.50
2018-09-27T06:33:04.397Z,78.60
2018-09-27T06:35:30.882Z,78.60
2018-09-27T06:37:57.534Z,77.20
2018-09-27T06:40:24.004Z,75.70
2018-09-27T06:42:50.556Z,74.10
2018-09-27T06:45:17.033Z,74.70
2018-09-27T06:47:43.573Z,73.70
2018-09-27T06:50:10.308Z,73.00
2018-09-27T06:52:40.207Z,71.70
2018-09-27T06:55:06.870Z,68.60
2018-09-27T06:57:33.475Z,67.90
2018-09-27T07:00:00.078Z,67.40
2018-09-27T07:02:26.594Z,67.70
2018-09-27T07:04:53.267Z,67.30
2018-09-27T07:07:19.808Z,69.10
2018-09-27T07:09:46.445Z,67.90
2018-09-27T07:12:14.035Z,67.40
2018-09-27T07:14:40.895Z,67.60
2018-09-27T07:17:07.551Z,66.10
2018-09-27T07:19:34.021Z,64.40
2018-09-27T07:22:00.530Z,64.20
2018-09-27T07:24:26.967Z,63.30
2018-09-27T07:26:53.435Z,60.60
2018-09-27T07:29:20.149Z,60.50
2018-09-27T07:31:46.617Z,60.50
2018-09-27T07:34:13.115Z,62.10
2018-09-27T07:36:39.703Z,62.50
2018-09-27T07:39:06.384Z,60.90
2018-09-27T07:41:32.880Z,59.20
2018-09-27T07:43:59.402Z,59.40
2018-09-27T07:46:26.666Z,59.10
2018-09-27T07:48:53.170Z,58.20
2018-09-27T07:51:19.734Z,57.50
2018-09-27T07:53:46.228Z,56.90
2018-09-27T07:56:12.803Z,58.00
2018-09-27T07:58:39.291Z,57.90
2018-09-27T08:01:05.782Z,57.50
2018-09-27T08:03:32.302Z,57.30
2018-09-27T08:05:58.824Z,57.00
2018-09-27T08:08:25.382Z,56.90
2018-09-27T08:10:51.926Z,57.40
2018-09-27T08:13:18.447Z,56.60
2018-09-27T08:15:44.979Z,56.00
2018-09-27T08:18:11.481Z,55.20
2018-09-27T08:20:38.136Z,55.20
2018-09-27T08:23:04.646Z,55.20
2018-09-27T08:25:31.115Z,55.20
2018-09-27T08:27:57.653Z,54.80
2018-09-27T08:30:24.231Z,54.20
2018-09-27T08:32:50.846Z,53.40
2018-09-27T08:35:17.356Z,53.20
2018-09-27T08:37:43.842Z,54.60
2018-09-27T08:40:11.518Z,53.00
2018-09-27T08:45:10.257Z,54.20
2018-09-27T08:47:36.809Z,54.30
2018-09-27T08:50:03.287Z,53.20
2018-09-27T08:52:29.832Z,54.80
2018-09-27T08:54:56.314Z,52.70
2018-09-27T08:57:22.774Z,52.60
2018-09-27T08:59:49.284Z,53.00
2018-09-27T09:02:16.042Z,52.40
2018-09-27T09:04:42.486Z,52.20
2018-09-27T09:07:08.963Z,52.00
2018-09-27T09:09:35.499Z,51.60
2018-09-27T09:12:02.191Z,49.50
2018-09-27T09:14:28.809Z,48.20
2018-09-27T09:16:55.276Z,48.10
2018-09-27T09:19:21.797Z,48.40
2018-09-27T09:21:48.365Z,47.60
2018-09-27T09:24:14.855Z,48.20
2018-09-27T09:26:41.317Z,47.60
2018-09-27T09:29:07.871Z,49.00
2018-09-27T09:31:34.468Z,48.10
2018-09-27T09:34:00.982Z,47.60
2018-09-27T09:36:27.616Z,48.30
2018-09-27T09:38:54.086Z,49.40
2018-09-27T09:41:20.594Z,51.10
2018-09-27T09:43:47.218Z,49.00
2018-09-27T09:46:13.719Z,48.40
2018-09-27T09:48:40.347Z,49.90
2018-09-27T09:51:06.887Z,48.50
2018-09-27T09:53:33.355Z,49.20
2018-09-27T09:55:59.808Z,48.80
2018-09-27T09:58:26.317Z,48.30
2018-09-27T10:00:52.776Z,47.90
2018-09-27T10:03:19.355Z,46.90
2018-09-27T10:05:46.644Z,47.40
2018-09-27T10:08:13.096Z,48.60
2018-09-27T10:10:39.694Z,47.80
2018-09-27T10:13:06.208Z,47.60
2018-09-27T10:15:32.704Z,47.30
2018-09-27T10:17:59.179Z,46.90
2018-09-27T10:20:25.957Z,46.30
2018-09-27T10:22:52.418Z,47.90
2018-09-27T10:25:18.949Z,46.30
2018-09-27T10:27:45.449Z,45.90
2018-09-27T10:30:12.139Z,45.20
2018-09-27T10:32:38.737Z,45.90
2018-09-27T10:35:05.263Z,45.80
2018-09-27T10:37:31.994Z,42.90
2018-09-27T10:39:58.475Z,42.60
2018-09-27T10:42:25.044Z,43.20
2018-09-27T10:44:51.624Z,43.60
2018-09-27T10:47:18.282Z,45.70
2018-09-27T10:49:44.900Z,39.90
2018-09-27T10:52:11.377Z,41.70
2018-09-27T10:54:37.838Z,42.00
2018-09-27T10:57:04.437Z,42.40
2018-09-27T10:59:31.318Z,40.60
2018-09-27T11:01:58.044Z,39.80
2018-09-27T11:04:24.624Z,40.20
2018-09-27T11:06:51.197Z,41.40
2018-09-27T11:09:18.518Z,39.70
2018-09-27T11:11:46.215Z,41.20
2018-09-27T11:14:12.699Z,39.50
2018-09-27T11:16:39.211Z,40.40
2018-09-27T11:19:05.959Z,40.60
2018-09-27T11:21:32.467Z,39.30
2018-09-27T11:23:58.985Z,38.30
2018-09-27T11:26:25.590Z,37.40
2018-09-27T11:28:52.225Z,37.70
2018-09-27T11:31:18.888Z,38.20
2018-09-27T11:33:45.467Z,37.90
2018-09-27T11:36:12.047Z,37.90
2018-09-27T11:38:38.743Z,36.80
2018-09-27T11:43:37.082Z,33.90
2018-09-27T11:46:03.637Z,33.10
2018-09-27T11:48:30.140Z,34.70
2018-09-27T11:50:56.656Z,35.80
2018-09-27T11:53:23.140Z,34.20
2018-09-27T11:55:49.650Z,34.30
2018-09-27T11:58:16.388Z,38.00
2018-09-27T12:00:42.969Z,37.00
2018-09-27T12:03:09.690Z,34.70
2018-09-27T12:05:36.336Z,35.10
2018-09-27T12:08:02.906Z,34.60
2018-09-27T12:10:29.538Z,36.90
2018-09-27T12:12:56.161Z,36.50
2018-09-27T12:15:22.877Z,36.40
2018-09-27T12:17:49.341Z,35.30
2018-09-27T12:20:15.911Z,37.10
2018-09-27T12:22:42.421Z,33.70
2018-09-27T12:25:08.931Z,34.50
2018-09-27T12:27:35.441Z,35.00
2018-09-27T12:30:01.973Z,34.70
2018-09-27T12:32:28.476Z,35.80
2018-09-27T12:34:56.017Z,35.50
2018-09-27T12:37:22.660Z,34.50
2018-09-27T12:39:49.338Z,34.20
2018-09-27T12:42:15.988Z,33.50
2018-09-27T12:44:43.634Z,34.20
2018-09-27T12:47:10.131Z,33.90
2018-09-27T12:49:36.646Z,32.20
2018-09-27T12:52:03.356Z,33.60
2018-09-27T12:54:29.952Z,33.50
2018-09-27T12:56:57.109Z,32.50
2018-09-27T12:59:23.618Z,33.30
2018-09-27T13:01:50.392Z,32.50
2018-09-27T13:04:17.017Z,32.70
2018-09-27T13:06:43.497Z,33.00
2018-09-27T13:09:10.143Z,33.70
2018-09-27T13:11:40.642Z,33.30
2018-09-27T13:14:03.473Z,32.70
2018-09-27T13:16:29.987Z,33.80
2018-09-27T13:18:57.942Z,31.90
2018-09-27T13:21:23.394Z,29.80
2018-09-27T13:23:49.930Z,31.10
2018-09-27T13:26:16.466Z,29.80
2018-09-27T13:28:43.029Z,31.60
2018-09-27T13:31:09.813Z,31.30
2018-09-27T13:33:36.492Z,30.60
2018-09-27T13:36:02.990Z,32.00
2018-09-27T13:38:29.495Z,29.70
2018-09-27T13:40:56.076Z,29.90
2018-09-27T13:43:22.529Z,30.00
2018-09-27T13:45:50.252Z,29.70
2018-09-27T13:48:16.838Z,30.40
2018-09-27T13:50:43.423Z,30.70
2018-09-27T13:53:10.170Z,30.70
2018-09-27T13:58:08.838Z,30.80
2018-09-27T14:00:35.395Z,33.40
2018-09-27T14:03:01.944Z,31.00
2018-09-27T14:05:28.628Z,30.80
2018-09-27T14:07:55.300Z,33.00
2018-09-27T14:10:21.797Z,32.80
2018-09-27T14:12:48.398Z,32.70
2018-09-27T14:15:14.892Z,33.00
2018-09-27T14:17:41.431Z,33.10
2018-09-27T14:20:07.973Z,30.60
2018-09-27T14:22:34.600Z,32.00
2018-09-27T14:25:01.140Z,31.30
2018-09-27T14:27:28.207Z,31.70
2018-09-27T14:29:54.826Z,31.40
2018-09-27T14:32:21.535Z,34.00
2018-09-27T14:34:48.263Z,34.40
2018-09-27T14:37:14.866Z,33.40
2018-09-27T14:39:41.440Z,33.40
2018-09-27T14:42:07.940Z,32.20
2018-09-27T14:44:34.465Z,32.00
2018-09-27T14:47:01.007Z,33.70
2018-09-27T14:49:27.728Z,32.70
2018-09-27T14:51:54.249Z,33.80
2018-09-27T14:54:20.737Z,32.60
2018-09-27T14:56:47.385Z,32.50
2018-09-27T14:59:14.127Z,33.50
2018-09-27T15:01:40.590Z,32.80
2018-09-27T15:04:07.301Z,32.90
2018-09-27T15:06:33.835Z,33.80
2018-09-27T15:09:01.336Z,34.60
2018-09-27T15:11:27.892Z,33.90
2018-09-27T15:13:54.414Z,34.90
2018-09-27T15:16:20.954Z,35.10
2018-09-27T15:18:47.630Z,34.40
2018-09-27T15:21:14.158Z,33.70
2018-09-27T15:23:41.053Z,33.90
2018-09-27T15:26:07.704Z,34.20
2018-09-27T15:28:34.181Z,34.10
2018-09-27T15:31:00.736Z,35.10
2018-09-27T15:33:28.473Z,34.80
2018-09-27T15:35:55.030Z,36.20
2018-09-27T15:38:21.577Z,37.00
2018-09-27T15:40:48.164Z,36.10
2018-09-27T15:43:14.632Z,35.60
2018-09-27T15:45:41.265Z,35.10
2018-09-27T15:48:07.889Z,36.80
2018-09-27T15:50:34.423Z,38.40
2018-09-27T15:53:00.945Z,37.20
2018-09-27T15:55:27.489Z,36.00
2018-09-27T15:57:54.054Z,37.30
2018-09-27T16:00:20.787Z,37.80
2018-09-27T16:02:47.354Z,38.90
2018-09-27T16:05:13.845Z,37.20
2018-09-27T16:07:40.340Z,37.40
2018-09-27T16:10:06.905Z,39.60
2018-09-27T16:12:33.491Z,39.60
2018-09-27T16:15:00.551Z,41.30
2018-09-27T16:17:28.213Z,42.00
2018-09-27T16:19:54.894Z,41.50
2018-09-27T16:22:21.370Z,43.10
2018-09-27T16:24:47.875Z,41.90
2018-09-27T16:27:14.458Z,42.00
2018-09-27T16:29:40.983Z,42.70
2018-09-27T16:32:07.601Z,44.60
2018-09-27T16:34:34.165Z,45.10
2018-09-27T16:37:00.794Z,45.20
2018-09-27T16:39:27.301Z,45.50
2018-09-27T16:41:53.801Z,46.00
2018-09-27T16:44:20.392Z,47.40
2018-09-27T16:46:46.966Z,47.40
2018-09-27T16:49:13.591Z,47.90
2018-09-27T16:51:40.179Z,45.20
2018-09-27T16:54:06.733Z,45.40
2018-09-27T16:56:33.284Z,47.40
2018-09-27T16:59:00.840Z,46.30
2018-09-27T17:01:27.453Z,46.50
2018-09-27T17:03:54.055Z,46.90
2018-09-27T17:06:20.545Z,47.40
2018-09-27T17:08:47.463Z,48.20
2018-09-27T17:11:14.020Z,48.20
2018-09-27T17:13:40.706Z,47.50
2018-09-27T17:16:07.268Z,48.40
2018-09-27T17:18:33.851Z,49.50
2018-09-27T17:21:01.108Z,49.50
2018-09-27T17:23:27.675Z,48.90
2018-09-27T17:25:54.451Z,50.30
2018-09-27T17:28:21.009Z,50.10
2018-09-27T17:30:47.558Z,50.70
2018-09-27T17:33:14.102Z,50.70
2018-09-27T17:35:40.819Z,50.90
2018-09-27T17:38:07.546Z,51.40
2018-09-27T17:40:35.057Z,51.80
2018-09-27T17:43:01.739Z,52.20
2018-09-27T17:45:28.266Z,52.30
2018-09-27T17:47:54.774Z,52.40
2018-09-27T17:50:21.302Z,52.80
2018-09-27T17:52:48.561Z,52.50
2018-09-27T17:55:15.165Z,53.50
2018-09-27T17:57:41.681Z,53.90
2018-09-27T18:00:08.190Z,54.60
2018-09-27T18:02:34.850Z,54.60
2018-09-27T18:05:01.665Z,55.30
2018-09-27T18:07:28.387Z,54.60
2018-09-27T18:09:55.100Z,55.90
2018-09-27T18:12:21.641Z,56.00
2018-09-27T18:14:48.172Z,56.70
2018-09-27T18:17:14.641Z,56.90
2018-09-27T18:19:41.632Z,57.90
2018-09-27T18:22:08.266Z,57.70
2018-09-27T18:24:35.644Z,57.00
2018-09-27T18:27:02.167Z,57.10
2018-09-27T18:29:29.744Z,57.00
2018-09-27T18:31:56.282Z,57.40
2018-09-27T18:34:22.737Z,57.80
2018-09-27T18:36:50.371Z,57.30
2018-09-27T18:39:16.879Z,57.60
2018-09-27T18:41:43.410Z,57.60
2018-09-27T18:44:11.443Z,58.00
2018-09-27T18:46:37.951Z,58.80
2018-09-27T18:49:04.492Z,58.80
2018-09-27T18:51:32.041Z,58.60
2018-09-27T18:53:58.564Z,59.10
2018-09-27T18:56:25.074Z,59.60
2018-09-27T18:58:51.557Z,59.40
2018-09-27T19:01:18.050Z,59.90
2018-09-27T19:03:44.527Z,60.60
2018-09-27T19:06:11.280Z,60.70
2018-09-27T19:08:37.893Z,62.40
2018-09-27T19:11:04.473Z,60.70
2018-09-27T19:13:32.130Z,60.50
2018-09-27T19:15:58.577Z,61.80
2018-09-27T19:18:25.153Z,60.50
2018-09-27T19:20:51.750Z,61.80
2018-09-27T19:23:18.478Z,62.90
2018-09-27T19:25:45.008Z,62.70
2018-09-27T19:28:11.554Z,62.80
2018-09-27T19:30:38.041Z,62.70
2018-09-27T19:33:04.628Z,62.60
2018-09-27T19:38:03.607Z,62.60
2018-09-27T19:40:30.276Z,63.00
2018-09-27T19:42:56.753Z,63.40
2018-09-27T19:45:23.287Z,63.40
2018-09-27T19:47:49.815Z,63.20
2018-09-27T19:50:16.340Z,63.70
2018-09-27T19:52:42.842Z,63.70
2018-09-27T19:55:09.343Z,64.80
2018-09-27T19:57:35.852Z,65.80
2018-09-27T20:00:03.346Z,65.90
2018-09-27T20:02:29.943Z,65.90
2018-09-27T20:04:56.364Z,65.20
2018-09-27T20:07:22.883Z,64.90
2018-09-27T20:09:49.386Z,65.50
2018-09-27T20:12:15.868Z,64.90
2018-09-27T20:14:42.386Z,65.30
2018-09-27T20:17:09.059Z,66.60
2018-09-27T20:19:36.217Z,67.30
2018-09-27T20:22:02.878Z,67.30
2018-09-27T20:24:29.477Z,65.90
2018-09-27T20:26:55.961Z,66.20
2018-09-27T20:29:23.143Z,66.40
2018-09-27T20:31:49.652Z,66.30
2018-09-27T20:34:16.313Z,66.90
2018-09-27T20:36:43.374Z,66.30
2018-09-27T20:39:09.890Z,66.20
2018-09-27T20:41:36.347Z,65.90
2018-09-27T20:44:02.989Z,66.50
2018-09-27T20:46:29.564Z,65.80
2018-09-27T20:48:56.079Z,66.10
2018-09-27T20:51:22.621Z,66.30
2018-09-27T20:53:49.094Z,67.70
2018-09-27T20:56:15.609Z,66.20
2018-09-27T20:58:43.347Z,66.50
2018-09-27T21:01:09.854Z,68.80
2018-09-27T21:03:36.359Z,69.50
2018-09-27T21:06:03.259Z,69.90
2018-09-27T21:08:29.764Z,69.30
2018-09-27T21:10:56.237Z,70.00
2018-09-27T21:13:22.717Z,70.40
2018-09-27T21:15:49.232Z,70.30
2018-09-27T21:18:15.753Z,70.20
2018-09-27T21:20:42.445Z,70.60
2018-09-27T21:23:08.946Z,71.00
2018-09-27T21:25:35.489Z,71.30
2018-09-27T21:28:01.985Z,70.40
2018-09-27T21:30:28.463Z,69.30
2018-09-27T21:32:54.971Z,70.00
2018-09-27T21:35:23.211Z,70.80
2018-09-27T21:37:49.809Z,70.30
2018-09-27T21:40:16.334Z,70.90
2018-09-27T21:42:42.811Z,70.70
2018-09-27T21:45:09.254Z,70.80
2018-09-27T21:47:36.724Z,70.60
2018-09-27T21:50:03.372Z,70.90
2018-09-27T21:52:29.896Z,71.70
2018-09-27T21:54:56.395Z,71.90
2018-09-27T21:57:22.951Z,71.70
2018-09-27T21:59:49.449Z,71.60
2018-09-27T22:02:16.819Z,71.70
2018-09-27T22:04:43.376Z,71.40
2018-09-27T22:07:09.841Z,71.40
2018-09-27T22:09:36.339Z,71.80
2018-09-27T22:12:02.853Z,72.70
2018-09-27T22:14:29.312Z,72.50
2018-09-27T22:16:55.949Z,71.70
2018-09-27T22:19:23.545Z,71.10
2018-09-27T22:21:50.580Z,70.90
2018-09-27T22:24:17.096Z,71.60
2018-09-27T22:26:43.572Z,72.80
2018-09-27T22:29:10.036Z,72.60
2018-09-27T22:31:36.538Z,71.70
2018-09-27T22:34:03.013Z,70.60
2018-09-27T22:36:29.474Z,72.70
2018-09-27T22:38:55.973Z,73.70
2018-09-27T22:41:22.764Z,75.10
2018-09-27T22:43:49.253Z,75.20
2018-09-27T22:46:15.788Z,73.40
2018-09-27T22:48:42.371Z,75.00
2018-09-27T22:51:08.984Z,75.00
2018-09-27T22:53:35.601Z,73.60
2018-09-27T22:56:02.117Z,74.60
2018-09-27T22:58:28.599Z,74.40
2018-09-27T23:00:55.092Z,74.90
2018-09-27T23:03:21.876Z,75.40
2018-09-27T23:05:48.398Z,73.40
2018-09-27T23:08:14.860Z,73.70
2018-09-27T23:13:13.373Z,74.70
2018-09-27T23:15:39.903Z,76.60
2018-09-27T23:18:06.398Z,76.30
2018-09-27T23:20:32.904Z,74.60
2018-09-27T23:22:59.437Z,75.50
2018-09-27T23:25:25.915Z,76.50
2018-09-27T23:27:55.596Z,76.20
2018-09-27T23:30:22.069Z,76.90
2018-09-27T23:32:48.609Z,77.90
2018-09-27T23:35:15.162Z,77.80
2018-09-27T23:37:41.773Z,77.60
2018-09-27T23:40:09.505Z,75.70
2018-09-27T23:42:36.058Z,74.90
2018-09-27T23:45:02.561Z,73.70
2018-09-27T23:47:29.021Z,73.70
2018-09-27T23:49:55.629Z,75.10
2018-09-27T23:52:22.829Z,76.10
2018-09-27T23:54:49.490Z,76.80
2018-09-27T23:59:49.229Z,76.90
